Time;durP1;ratioP1;P1;durP2;ratioP2;P2;SDS_P1;SDS_P2;PMS_P1;PMS_P2;Temp;Humidity;BMP_temperature;BMP_pressure;BME280_temperature;BME280_humidity;BME280_pressure;Samples;Min_cycle;Max_cycle;Signal;HPM_P1;HPM_P2
2023/07/15 07:23:55;;;;;;;11.68;4.47;;;;;;;;;;5070611;28;20383;-76
2023/07/15 07:26:21;;;;;;;5.85;4.45;;;;;;;;;;5071081;28;20025;-77
2023/07/15 07:28:47;;;;;;;7.85;4.65;;;;;;;;;;5069780;28;20031;-77
2023/07/15 07:31:16;;;;;;;8.10;5.07;;;;;;;;;;5070843;28;20083;-77
2023/07/15 07:33:42;;;;;;;9.32;5.03;;;;;;;;;;5070758;28;20497;-76
2023/07/15 07:36:08;;;;;;;7.47;4.88;;;;;;;;;;5071206;28;20028;-77
2023/07/15 07:38:34;;;;;;;7.53;4.68;;;;;;;;;;5070678;28;20017;-76
2023/07/15 07:41:05;;;;;;;8.43;4.53;;;;;;;;;;5058836;28;20025;-77
2023/07/15 07:43:32;;;;;;;10.27;4.10;;;;;;;;;;5058819;28;20098;-76
2023/07/15 07:45:59;;;;;;;5.20;3.88;;;;;;;;;;5070504;28;20025;-77
2023/07/15 07:48:25;;;;;;;6.65;4.53;;;;;;;;;;5070813;28;20025;-76
2023/07/15 07:50:51;;;;;;;7.25;3.95;;;;;;;;;;5069359;28;20021;-76
2023/07/15 07:53:17;;;;;;;9.20;3.95;;;;;;;;;;5068807;28;20021;-76
2023/07/15 07:55:43;;;;;;;9.10;4.00;;;;;;;;;;5052736;28;20029;-77
2023/07/15 07:58:09;;;;;;;9.13;3.58;;;;;;;;;;5064577;28;20031;-76
2023/07/15 08:00:36;;;;;;;6.15;3.90;;;;;;;;;;5069177;28;20025;-76
2023/07/15 08:03:02;;;;;;;7.55;4.20;;;;;;;;;;5069890;28;20025;-76
2023/07/15 08:05:28;;;;;;;7.88;4.45;;;;;;;;;;5069870;28;20403;-77
2023/07/15 08:07:54;;;;;;;8.18;4.15;;;;;;;;;;5070367;28;20023;-76
2023/07/15 08:10:20;;;;;;;6.10;3.90;;;;;;;;;;5069944;28;20359;-77
2023/07/15 08:12:47;;;;;;;6.55;3.88;;;;;;;;;;5068716;28;20115;-76
2023/07/15 08:15:13;;;;;;;7.95;3.90;;;;;;;;;;5065041;28;20090;-76
2023/07/15 08:17:39;;;;;;;7.43;3.70;;;;;;;;;;5063677;28;20020;-76
2023/07/15 08:20:07;;;;;;;8.68;3.38;;;;;;;;;;5064664;28;20032;-76
2023/07/15 08:22:34;;;;;;;5.78;3.50;;;;;;;;;;5048138;28;20055;-77
2023/07/15 08:25:00;;;;;;;5.53;3.97;;;;;;;;;;5055256;28;20351;-77
2023/07/15 08:27:26;;;;;;;6.00;3.67;;;;;;;;;;5058312;28;20083;-77
2023/07/15 08:29:53;;;;;;;9.32;3.10;;;;;;;;;;5068344;28;20017;-76
2023/07/15 08:32:19;;;;;;;8.60;3.75;;;;;;;;;;5067444;28;20028;-77
2023/07/15 08:35:00;;;;;;;6.10;3.50;;;;;;;;;;5057691;28;20029;-77
2023/07/15 08:37:27;;;;;;;5.30;3.55;;;;;;;;;;5056418;28;20032;-78
2023/07/15 08:39:53;;;;;;;10.00;3.45;;;;;;;;;;5053383;28;20048;-78
2023/07/15 08:42:22;;;;;;;5.78;3.15;;;;;;;;;;5054471;28;20032;-76
2023/07/15 08:44:49;;;;;;;5.68;3.45;;;;;;;;;;5055106;28;20044;-77
2023/07/15 08:47:19;;;;;;;6.85;3.00;;;;;;;;;;5055211;28;20052;-77
2023/07/15 08:49:45;;;;;;;5.57;3.30;;;;;;;;;;5056037;28;20049;-76
2023/07/15 08:52:12;;;;;;;4.60;2.90;;;;;;;;;;5054954;28;20017;-77
2023/07/15 08:54:39;;;;;;;8.20;3.47;;;;;;;;;;5055973;28;20016;-76
2023/07/15 08:57:06;;;;;;;6.85;3.00;;;;;;;;;;5055714;28;20428;-75
2023/07/15 08:59:33;;;;;;;6.25;2.97;;;;;;;;;;5056096;28;20044;-77
2023/07/15 09:02:02;;;;;;;5.05;2.97;;;;;;;;;;5055728;28;20051;-76
2023/07/15 09:04:29;;;;;;;8.15;2.70;;;;;;;;;;5054367;28;20045;-76
2023/07/15 09:06:55;;;;;;;4.20;2.85;;;;;;;;;;5055682;28;20025;-76
2023/07/15 09:09:31;;;;;;;6.72;3.35;;;;;;;;;;5056072;28;20497;-77
2023/07/15 09:12:00;;;;;;;9.48;3.10;;;;;;;;;;5055683;28;20024;-79
2023/07/15 09:14:26;;;;;;;6.20;3.15;;;;;;;;;;5055849;28;20024;-77
2023/07/15 09:16:56;;;;;;;4.88;3.10;;;;;;;;;;5052385;28;20474;-78
2023/07/15 09:19:24;;;;;;;5.65;3.20;;;;;;;;;;5054430;28;20035;-78
2023/07/15 09:21:55;;;;;;;8.00;3.17;;;;;;;;;;5054082;28;20132;-77
2023/07/15 09:24:22;;;;;;;7.38;2.80;;;;;;;;;;5054400;28;20112;-76
2023/07/15 09:26:48;;;;;;;5.32;2.92;;;;;;;;;;5055492;28;20090;-78
2023/07/15 09:29:14;;;;;;;5.25;3.30;;;;;;;;;;5055348;28;20021;-78
2023/07/15 09:31:41;;;;;;;5.93;2.65;;;;;;;;;;5054066;28;20025;-77
2023/07/15 09:34:07;;;;;;;4.50;3.30;;;;;;;;;;5035573;28;20088;-77
2023/07/15 09:36:33;;;;;;;5.72;2.85;;;;;;;;;;5052394;28;20028;-79
2023/07/15 09:39:03;;;;;;;5.75;3.20;;;;;;;;;;5053862;28;20017;-79
2023/07/15 09:41:30;;;;;;;5.67;3.33;;;;;;;;;;5053676;28;20028;-78
2023/07/15 09:43:56;;;;;;;5.75;3.42;;;;;;;;;;5055061;28;20029;-76
2023/07/15 09:46:22;;;;;;;8.23;3.35;;;;;;;;;;5053920;28;20090;-78
2023/07/15 09:48:49;;;;;;;4.82;3.03;;;;;;;;;;5053913;28;20028;-78
2023/07/15 09:51:16;;;;;;;4.70;3.67;;;;;;;;;;5043561;28;20033;-76
2023/07/15 09:53:49;;;;;;;6.53;3.45;;;;;;;;;;5054832;28;20364;-78
2023/07/15 09:56:35;;;;;;;6.25;3.35;;;;;;;;;;5055134;28;20070;-77
2023/07/15 09:59:22;;;;;;;4.53;3.10;;;;;;;;;;5053521;28;20029;-77
2023/07/15 10:01:49;;;;;;;7.88;3.60;;;;;;;;;;5054720;28;20017;-77
2023/07/15 10:04:31;;;;;;;5.75;3.45;;;;;;;;;;5054553;28;20079;-76
2023/07/15 10:06:57;;;;;;;5.25;3.33;;;;;;;;;;5054485;28;20025;-78
2023/07/15 10:09:24;;;;;;;7.13;3.92;;;;;;;;;;5054772;28;20459;-78
2023/07/15 10:11:51;;;;;;;7.43;3.58;;;;;;;;;;5054795;28;20029;-77
2023/07/15 10:14:18;;;;;;;9.70;3.83;;;;;;;;;;5054589;28;20082;-76
2023/07/15 10:16:45;;;;;;;6.13;3.47;;;;;;;;;;5039127;28;20017;-76
2023/07/15 10:19:29;;;;;;;11.55;3.75;;;;;;;;;;5054471;28;20017;-78
2023/07/15 10:21:58;;;;;;;7.72;4.05;;;;;;;;;;5054069;28;20414;-77
2023/07/15 10:24:26;;;;;;;4.90;3.50;;;;;;;;;;5054214;28;20517;-78
2023/07/15 10:26:53;;;;;;;8.07;4.43;;;;;;;;;;5054250;28;20078;-77
2023/07/15 10:29:23;;;;;;;6.28;4.10;;;;;;;;;;5054306;28;20025;-77
2023/07/15 10:32:08;;;;;;;6.68;4.10;;;;;;;;;;5054056;28;20025;-76
2023/07/15 10:34:39;;;;;;;9.30;4.53;;;;;;;;;;5053036;28;20447;-77
2023/07/15 10:37:10;;;;;;;9.57;3.97;;;;;;;;;;5054207;28;20099;-77
2023/07/15 10:39:36;;;;;;;7.90;4.28;;;;;;;;;;5046972;28;20033;-77
2023/07/15 10:42:10;;;;;;;7.38;3.85;;;;;;;;;;5036734;28;20025;-77
2023/07/15 10:44:56;;;;;;;10.20;4.45;;;;;;;;;;5054431;28;20029;-77
2023/07/15 10:47:22;;;;;;;11.88;4.22;;;;;;;;;;5052521;28;20059;-77
2023/07/15 10:49:52;;;;;;;9.48;4.07;;;;;;;;;;5051831;28;20074;-77
2023/07/15 10:52:20;;;;;;;8.23;4.20;;;;;;;;;;5053632;28;20044;-77
2023/07/15 10:54:46;;;;;;;9.52;4.00;;;;;;;;;;5052462;28;20036;-77
2023/07/15 10:57:14;;;;;;;7.63;4.32;;;;;;;;;;5053431;28;20041;-77
2023/07/15 10:59:41;;;;;;;8.18;4.50;;;;;;;;;;5052577;28;20025;-77
2023/07/15 11:02:07;;;;;;;7.80;4.45;;;;;;;;;;5052265;28;20107;-77
2023/07/15 11:04:35;;;;;;;8.07;4.25;;;;;;;;;;5052571;28;20025;-78
2023/07/15 11:07:02;;;;;;;10.80;4.28;;;;;;;;;;5053614;28;20041;-77
2023/07/15 11:09:28;;;;;;;8.13;4.22;;;;;;;;;;5052612;28;20021;-77
2023/07/15 11:11:55;;;;;;;6.93;4.10;;;;;;;;;;5053649;28;20035;-76
2023/07/15 11:14:22;;;;;;;6.10;3.90;;;;;;;;;;5053592;28;20028;-79
2023/07/15 11:16:55;;;;;;;5.65;4.35;;;;;;;;;;5046857;28;20025;-78
2023/07/15 11:19:23;;;;;;;9.02;4.00;;;;;;;;;;5037018;28;20099;-78
2023/07/15 11:21:49;;;;;;;5.53;3.80;;;;;;;;;;5034172;28;20136;-79
2023/07/15 11:24:16;;;;;;;5.85;3.90;;;;;;;;;;5037492;28;20064;-78
2023/07/15 11:26:43;;;;;;;6.45;3.88;;;;;;;;;;5047694;28;20026;-78
2023/07/15 11:29:22;;;;;;;7.80;4.10;;;;;;;;;;5052603;28;20028;-77
2023/07/15 11:31:53;;;;;;;9.93;4.07;;;;;;;;;;5052630;28;20032;-78
2023/07/15 11:34:20;;;;;;;6.82;4.03;;;;;;;;;;5051745;28;20460;-79
2023/07/15 11:36:47;;;;;;;7.80;4.15;;;;;;;;;;5052418;28;20103;-79
2023/07/15 11:39:14;;;;;;;8.20;5.35;;;;;;;;;;5043437;28;20096;-79
2023/07/15 11:41:40;;;;;;;6.65;4.10;;;;;;;;;;5042507;28;20072;-78
2023/07/15 11:44:07;;;;;;;9.68;5.10;;;;;;;;;;5052309;28;20040;-78
2023/07/15 11:46:34;;;;;;;8.07;4.43;;;;;;;;;;5052593;28;20043;-78
2023/07/15 11:49:00;;;;;;;9.68;4.45;;;;;;;;;;5052565;28;20013;-78
2023/07/15 11:51:26;;;;;;;8.57;4.53;;;;;;;;;;5052691;28;20048;-79
2023/07/15 11:53:54;;;;;;;8.90;4.15;;;;;;;;;;5051054;28;20079;-79
2023/07/15 11:56:39;;;;;;;8.93;4.47;;;;;;;;;;5050827;28;20021;-78
2023/07/15 11:59:06;;;;;;;5.68;4.60;;;;;;;;;;5052657;28;20370;-79
2023/07/15 12:01:32;;;;;;;7.53;4.57;;;;;;;;;;5051193;28;20028;-78
2023/07/15 12:03:58;;;;;;;12.07;4.70;;;;;;;;;;5051249;28;20032;-78
2023/07/15 12:06:26;;;;;;;8.98;4.70;;;;;;;;;;5051335;28;20021;-79
2023/07/15 12:09:11;;;;;;;8.43;3.70;;;;;;;;;;5053406;28;20028;-78
2023/07/15 12:11:37;;;;;;;13.85;4.60;;;;;;;;;;5055103;28;20035;-78
2023/07/15 12:14:04;;;;;;;7.85;4.78;;;;;;;;;;5055022;28;20025;-78
2023/07/15 12:16:31;;;;;;;10.15;4.47;;;;;;;;;;5039078;28;20026;-78
2023/07/15 12:18:58;;;;;;;7.90;4.65;;;;;;;;;;5052802;28;20074;-79
2023/07/15 12:21:24;;;;;;;11.93;4.90;;;;;;;;;;5056353;28;20032;-79
2023/07/15 12:23:50;;;;;;;6.55;5.22;;;;;;;;;;5055997;28;20037;-78
2023/07/15 12:26:18;;;;;;;7.28;4.57;;;;;;;;;;5055853;28;20021;-79
2023/07/15 12:28:44;;;;;;;5.75;4.45;;;;;;;;;;5056781;28;20025;-78
2023/07/15 12:31:10;;;;;;;6.65;5.05;;;;;;;;;;5047000;28;20013;-77
2023/07/15 12:33:36;;;;;;;6.13;5.03;;;;;;;;;;5035618;28;20475;-79
2023/07/15 12:36:03;;;;;;;8.75;4.93;;;;;;;;;;5053811;28;20353;-79
2023/07/15 12:38:29;;;;;;;6.32;4.80;;;;;;;;;;5054623;28;20155;-78
2023/07/15 12:40:56;;;;;;;9.18;5.00;;;;;;;;;;5053060;28;20021;-78
2023/07/15 12:43:23;;;;;;;8.82;5.07;;;;;;;;;;5034601;28;20053;-78
2023/07/15 12:45:52;;;;;;;9.32;5.07;;;;;;;;;;5042261;28;20108;-78
2023/07/15 12:48:19;;;;;;;10.38;5.07;;;;;;;;;;5040153;28;20020;-77
2023/07/15 12:50:45;;;;;;;9.75;5.28;;;;;;;;;;5046125;28;20026;-77
2023/07/15 12:53:11;;;;;;;10.55;5.28;;;;;;;;;;5035559;28;20021;-78
2023/07/15 12:55:37;;;;;;;9.65;4.18;;;;;;;;;;5053044;28;20044;-78
2023/07/15 12:58:03;;;;;;;7.53;4.90;;;;;;;;;;5054619;28;20032;-78
2023/07/15 13:00:29;;;;;;;7.18;4.35;;;;;;;;;;5054025;28;20028;-78
2023/07/15 13:02:56;;;;;;;8.65;4.32;;;;;;;;;;5048678;28;20059;-76
2023/07/15 13:05:22;;;;;;;9.85;4.70;;;;;;;;;;5042091;28;20375;-78
2023/07/15 13:07:48;;;;;;;8.70;5.10;;;;;;;;;;5055210;28;20024;-78
2023/07/15 13:10:14;;;;;;;9.10;4.53;;;;;;;;;;5055254;28;20043;-78
2023/07/15 13:12:40;;;;;;;8.18;4.35;;;;;;;;;;5046313;28;20025;-78
2023/07/15 13:15:07;;;;;;;5.85;4.07;;;;;;;;;;5047630;28;20025;-77
2023/07/15 13:17:33;;;;;;;11.38;4.72;;;;;;;;;;5049369;28;20035;-78
2023/07/15 13:19:59;;;;;;;11.68;5.10;;;;;;;;;;5055294;28;20021;-77
2023/07/15 13:22:25;;;;;;;9.43;4.75;;;;;;;;;;5042464;28;20045;-78
2023/07/15 13:24:51;;;;;;;9.85;4.70;;;;;;;;;;5040234;28;20021;-79
2023/07/15 13:27:18;;;;;;;8.00;4.28;;;;;;;;;;5043526;28;20025;-77
2023/07/15 13:29:44;;;;;;;7.05;4.35;;;;;;;;;;5054805;28;20024;-77
2023/07/15 13:32:10;;;;;;;8.27;4.50;;;;;;;;;;5035921;28;20075;-78
2023/07/15 13:34:36;;;;;;;6.10;4.60;;;;;;;;;;5034619;28;20087;-77
2023/07/15 13:37:03;;;;;;;13.73;4.57;;;;;;;;;;5039420;28;20476;-77
2023/07/15 13:39:36;;;;;;;7.82;4.50;;;;;;;;;;5034657;28;20079;-78
2023/07/15 13:42:29;;;;;;;6.82;4.38;;;;;;;;;;5037045;28;20088;-77
2023/07/15 13:44:55;;;;;;;11.13;4.63;;;;;;;;;;5033541;28;20038;-78
2023/07/15 13:47:22;;;;;;;13.07;4.40;;;;;;;;;;5034210;28;20028;-77
2023/07/15 13:49:48;;;;;;;9.02;4.47;;;;;;;;;;5032238;28;20021;-78
2023/07/15 13:52:14;;;;;;;8.35;4.20;;;;;;;;;;5033923;28;20487;-77
2023/07/15 13:54:40;;;;;;;7.13;3.95;;;;;;;;;;5053642;28;20472;-76
2023/07/15 13:57:07;;;;;;;9.80;3.90;;;;;;;;;;5052966;28;20029;-78
2023/07/15 13:59:33;;;;;;;7.75;3.97;;;;;;;;;;5053650;28;20493;-77
2023/07/15 14:01:59;;;;;;;9.15;4.03;;;;;;;;;;5053746;28;20366;-78
2023/07/15 14:04:25;;;;;;;8.40;3.92;;;;;;;;;;5054261;28;20032;-77
2023/07/15 14:06:51;;;;;;;9.43;4.53;;;;;;;;;;5053705;28;20313;-78
2023/07/15 14:09:17;;;;;;;9.13;4.00;;;;;;;;;;5054079;28;20066;-79
2023/07/15 14:11:44;;;;;;;6.90;4.35;;;;;;;;;;5052730;28;20017;-78
2023/07/15 14:14:11;;;;;;;9.63;4.30;;;;;;;;;;5054117;28;20460;-78
2023/07/15 14:16:37;;;;;;;9.00;4.13;;;;;;;;;;5037047;28;20025;-78
2023/07/15 14:19:03;;;;;;;8.55;4.13;;;;;;;;;;5048054;28;20025;-77
2023/07/15 14:21:30;;;;;;;10.32;4.55;;;;;;;;;;5038036;28;20372;-79
2023/07/15 14:23:56;;;;;;;12.55;4.53;;;;;;;;;;5041492;28;20033;-78
2023/07/15 14:26:22;;;;;;;9.30;4.43;;;;;;;;;;5049788;28;20098;-78
2023/07/15 14:28:49;;;;;;;5.55;4.05;;;;;;;;;;5035365;28;20024;-77
2023/07/15 14:31:15;;;;;;;11.02;4.75;;;;;;;;;;5053378;28;20452;-78
2023/07/15 14:33:41;;;;;;;10.10;3.92;;;;;;;;;;5053151;28;20036;-77
2023/07/15 14:36:07;;;;;;;8.43;4.10;;;;;;;;;;5053673;28;20071;-78
2023/07/15 14:38:33;;;;;;;8.13;4.20;;;;;;;;;;5049096;28;20036;-78
2023/07/15 14:40:59;;;;;;;10.90;4.00;;;;;;;;;;5043492;28;20096;-78
2023/07/15 14:43:26;;;;;;;5.50;3.85;;;;;;;;;;5052147;28;20241;-78
2023/07/15 14:45:52;;;;;;;10.85;5.00;;;;;;;;;;5053231;28;20021;-78
2023/07/15 14:48:18;;;;;;;8.07;3.95;;;;;;;;;;5052959;28;20013;-78
2023/07/15 14:50:44;;;;;;;11.23;4.35;;;;;;;;;;5052833;28;20056;-79
2023/07/15 14:53:10;;;;;;;9.48;5.13;;;;;;;;;;5052134;28;20361;-78
2023/07/15 14:55:37;;;;;;;13.65;4.40;;;;;;;;;;5052621;28;20364;-78
2023/07/15 14:58:03;;;;;;;7.28;4.28;;;;;;;;;;5053508;28;20048;-78
2023/07/15 15:00:29;;;;;;;9.70;4.10;;;;;;;;;;5053422;28;20029;-78
2023/07/15 15:02:56;;;;;;;9.95;3.97;;;;;;;;;;5052719;28;20028;-77
2023/07/15 15:05:22;;;;;;;10.98;4.72;;;;;;;;;;5053144;28;20104;-78
2023/07/15 15:07:48;;;;;;;10.10;4.00;;;;;;;;;;5051701;28;20104;-78
2023/07/15 15:10:15;;;;;;;9.50;4.03;;;;;;;;;;5053385;28;20013;-77
2023/07/15 15:12:41;;;;;;;11.38;4.57;;;;;;;;;;5052832;28;20028;-79
2023/07/15 15:15:07;;;;;;;7.18;5.20;;;;;;;;;;5048905;28;20023;-78
2023/07/15 15:17:33;;;;;;;10.70;4.10;;;;;;;;;;5045020;28;20020;-77
2023/07/15 15:19:59;;;;;;;7.90;4.07;;;;;;;;;;5053591;28;20029;-78
2023/07/15 15:22:26;;;;;;;5.72;3.63;;;;;;;;;;5053495;28;20037;-79
2023/07/15 15:24:52;;;;;;;15.63;3.80;;;;;;;;;;5053369;28;20091;-77
2023/07/15 15:27:18;;;;;;;6.80;4.15;;;;;;;;;;5032028;28;20048;-79
2023/07/15 15:29:44;;;;;;;7.97;4.38;;;;;;;;;;5032230;28;20021;-79
2023/07/15 15:32:11;;;;;;;8.82;3.83;;;;;;;;;;5039735;28;20409;-77
2023/07/15 15:34:37;;;;;;;9.43;3.97;;;;;;;;;;5046724;28;20374;-77
2023/07/15 15:37:04;;;;;;;6.43;3.72;;;;;;;;;;5052357;28;20408;-77
2023/07/15 15:39:30;;;;;;;8.98;4.40;;;;;;;;;;5053143;28;20021;-77
2023/07/15 15:41:56;;;;;;;8.90;4.20;;;;;;;;;;5053046;28;20129;-77
2023/07/15 15:44:22;;;;;;;13.85;4.50;;;;;;;;;;5044944;28;20023;-77
2023/07/15 15:46:48;;;;;;;10.45;4.10;;;;;;;;;;5057215;28;20028;-78
2023/07/15 15:49:16;;;;;;;8.00;4.65;;;;;;;;;;5057860;28;20017;-79
2023/07/15 15:51:42;;;;;;;6.57;3.90;;;;;;;;;;5057138;28;20498;-78
2023/07/15 15:54:09;;;;;;;13.45;4.25;;;;;;;;;;5056964;28;20020;-79
2023/07/15 15:56:35;;;;;;;6.28;4.13;;;;;;;;;;5057066;28;20035;-77
2023/07/15 15:59:02;;;;;;;9.95;3.40;;;;;;;;;;5055757;28;20467;-79
2023/07/15 16:01:28;;;;;;;13.93;4.97;;;;;;;;;;5055800;28;20044;-77
2023/07/15 16:03:54;;;;;;;9.50;4.53;;;;;;;;;;5057114;28;20083;-77
2023/07/15 16:06:20;;;;;;;11.63;4.85;;;;;;;;;;5046989;28;20070;-78
2023/07/15 16:08:47;;;;;;;9.27;4.95;;;;;;;;;;5036999;28;20013;-77
2023/07/15 16:11:13;;;;;;;6.70;4.78;;;;;;;;;;5050795;28;20070;-77
2023/07/15 16:13:39;;;;;;;13.38;5.57;;;;;;;;;;5050609;28;20025;-79
2023/07/15 16:16:06;;;;;;;8.07;5.13;;;;;;;;;;5053464;28;20021;-78
2023/07/15 16:18:32;;;;;;;11.70;4.90;;;;;;;;;;5056475;28;20025;-79
2023/07/15 16:20:59;;;;;;;9.88;5.32;;;;;;;;;;5048799;28;20510;-78
2023/07/15 16:23:25;;;;;;;9.00;4.63;;;;;;;;;;5056220;28;20059;-79
2023/07/15 16:25:51;;;;;;;13.38;4.78;;;;;;;;;;5056371;28;20065;-78
2023/07/15 16:28:17;;;;;;;7.55;4.05;;;;;;;;;;5038281;28;20029;-77
2023/07/15 16:30:43;;;;;;;7.82;4.07;;;;;;;;;;5049472;28;20475;-78
2023/07/15 16:33:09;;;;;;;6.70;3.92;;;;;;;;;;5046536;28;20479;-78
2023/07/15 16:49:01;;;;;;;12.57;4.63;;;;;;;;;;5070841;28;20610;-76
2023/07/15 16:51:27;;;;;;;8.13;4.80;;;;;;;;;;5070667;28;20379;-79
2023/07/15 16:53:53;;;;;;;7.15;4.95;;;;;;;;;;5070892;28;20463;-78
2023/07/15 16:56:19;;;;;;;12.75;4.25;;;;;;;;;;5069756;28;20460;-78
2023/07/15 16:58:45;;;;;;;11.38;4.82;;;;;;;;;;5070924;28;20032;-78
2023/07/15 17:01:11;;;;;;;7.07;4.45;;;;;;;;;;5070332;28;20414;-79
2023/07/15 17:03:38;;;;;;;8.73;4.05;;;;;;;;;;5070994;28;20063;-80
2023/07/15 17:06:04;;;;;;;7.90;3.65;;;;;;;;;;5070852;28;20016;-78
2023/07/15 17:08:30;;;;;;;4.97;3.00;;;;;;;;;;5070574;28;20028;-78
2023/07/15 17:10:56;;;;;;;6.10;3.50;;;;;;;;;;5070705;28;20025;-78
2023/07/15 17:13:22;;;;;;;7.95;3.63;;;;;;;;;;5070743;28;20012;-78
2023/07/15 17:15:48;;;;;;;6.65;3.35;;;;;;;;;;5070397;28;20024;-79
2023/07/15 17:18:15;;;;;;;6.25;2.90;;;;;;;;;;5070565;28;20099;-78
2023/07/15 17:20:41;;;;;;;5.65;3.25;;;;;;;;;;5068654;28;20078;-79
2023/07/15 17:23:07;;;;;;;10.45;3.15;;;;;;;;;;5068974;28;20032;-79
2023/07/15 17:25:33;;;;;;;5.20;2.50;;;;;;;;;;5070122;28;20025;-78
2023/07/15 17:27:59;;;;;;;7.60;2.70;;;;;;;;;;5069796;28;20070;-79
2023/07/15 17:30:25;;;;;;;7.68;3.63;;;;;;;;;;5070620;28;20028;-78
2023/07/15 17:32:51;;;;;;;6.32;2.88;;;;;;;;;;5069534;28;20021;-78
2023/07/15 17:35:18;;;;;;;6.22;2.78;;;;;;;;;;5069769;28;20020;-78
2023/07/15 17:37:44;;;;;;;5.57;2.88;;;;;;;;;;5069990;28;20033;-78
2023/07/15 17:40:10;;;;;;;4.55;2.53;;;;;;;;;;5075979;28;20025;-78
2023/07/15 17:42:36;;;;;;;9.10;2.92;;;;;;;;;;5059194;28;20806;-78
2023/07/15 17:45:02;;;;;;;6.78;2.85;;;;;;;;;;5068095;28;20020;-79
2023/07/15 17:47:29;;;;;;;7.50;2.55;;;;;;;;;;5069741;28;20044;-79
2023/07/15 17:49:55;;;;;;;6.07;3.08;;;;;;;;;;5069053;28;20020;-79
2023/07/15 17:52:21;;;;;;;5.10;2.55;;;;;;;;;;5067804;28;20085;-77
2023/07/15 17:54:47;;;;;;;5.70;2.67;;;;;;;;;;5066926;28;20039;-78
2023/07/15 17:57:14;;;;;;;9.05;3.15;;;;;;;;;;5068746;28;20124;-78
2023/07/15 17:59:40;;;;;;;6.57;2.78;;;;;;;;;;5059401;28;20099;-78
2023/07/15 18:02:06;;;;;;;4.00;2.58;;;;;;;;;;5054737;28;20029;-78
2023/07/15 18:04:32;;;;;;;6.88;2.50;;;;;;;;;;5053146;28;20479;-80
2023/07/15 18:06:58;;;;;;;8.18;3.17;;;;;;;;;;5053900;28;20029;-80
2023/07/15 18:09:24;;;;;;;4.07;2.53;;;;;;;;;;5054888;28;20025;-79
2023/07/15 18:11:50;;;;;;;6.35;2.90;;;;;;;;;;5054943;28;20032;-79
2023/07/15 18:14:16;;;;;;;6.30;2.63;;;;;;;;;;5054622;28;20024;-79
2023/07/15 18:16:42;;;;;;;6.30;2.75;;;;;;;;;;5054463;28;20017;-79
2023/07/15 18:19:08;;;;;;;6.68;2.80;;;;;;;;;;5055499;28;20017;-79
2023/07/15 18:21:34;;;;;;;8.68;2.63;;;;;;;;;;5070443;28;20017;-79
2023/07/15 18:24:01;;;;;;;7.60;2.92;;;;;;;;;;5055737;28;20024;-79
2023/07/15 18:26:27;;;;;;;5.80;2.55;;;;;;;;;;5055665;28;20525;-79
2023/07/15 18:28:53;;;;;;;5.22;2.40;;;;;;;;;;5055865;28;20075;-78
2023/07/15 18:31:19;;;;;;;4.35;2.47;;;;;;;;;;5055515;28;20025;-78
2023/07/15 18:33:45;;;;;;;11.20;2.65;;;;;;;;;;5055670;28;20041;-80
2023/07/15 18:36:11;;;;;;;12.60;3.28;;;;;;;;;;5055118;28;20032;-79
2023/07/15 18:38:37;;;;;;;9.15;2.58;;;;;;;;;;5055258;28;20487;-78
2023/07/15 18:41:03;;;;;;;4.50;2.60;;;;;;;;;;5054375;28;20025;-80
2023/07/15 18:43:31;;;;;;;10.48;2.80;;;;;;;;;;5054385;28;20363;-79
2023/07/15 18:45:57;;;;;;;4.05;2.40;;;;;;;;;;5054177;28;20013;-80
2023/07/15 18:48:23;;;;;;;9.05;3.00;;;;;;;;;;5055428;28;20044;-79
2023/07/15 18:50:49;;;;;;;9.00;3.22;;;;;;;;;;5055247;28;20021;-78
2023/07/15 18:53:15;;;;;;;6.70;3.53;;;;;;;;;;5054321;28;20382;-79
2023/07/15 18:55:41;;;;;;;17.48;12.55;;;;;;;;;;5054762;28;20367;-79
2023/07/15 18:58:07;;;;;;;9.98;4.32;;;;;;;;;;5055002;28;20455;-80
2023/07/15 19:00:34;;;;;;;9.93;4.03;;;;;;;;;;5054349;28;20013;-81
2023/07/15 19:03:00;;;;;;;9.52;4.80;;;;;;;;;;5054971;28;20017;-80
2023/07/15 19:05:26;;;;;;;6.53;3.45;;;;;;;;;;5053459;28;20035;-80
2023/07/15 19:07:52;;;;;;;10.57;3.72;;;;;;;;;;5054497;28;20029;-80
2023/07/15 19:10:19;;;;;;;7.05;3.60;;;;;;;;;;5054400;28;20537;-80
2023/07/15 19:12:45;;;;;;;13.25;4.05;;;;;;;;;;5053857;28;20017;-79
2023/07/15 19:15:11;;;;;;;10.15;4.30;;;;;;;;;;5054351;28;20045;-80
2023/07/15 19:17:37;;;;;;;7.70;3.47;;;;;;;;;;5054917;28;20459;-79
2023/07/15 19:20:04;;;;;;;7.28;3.20;;;;;;;;;;5055073;28;20019;-79
2023/07/15 19:22:30;;;;;;;5.82;2.72;;;;;;;;;;5054825;28;20021;-79
2023/07/15 19:24:56;;;;;;;12.70;5.88;;;;;;;;;;5070343;28;20016;-79
2023/07/15 19:27:22;;;;;;;15.50;4.82;;;;;;;;;;5055173;28;20112;-79
2023/07/15 19:29:48;;;;;;;14.40;4.70;;;;;;;;;;5054697;28;20410;-81
2023/07/15 19:32:14;;;;;;;10.85;4.03;;;;;;;;;;5052546;28;20020;-78
2023/07/15 19:34:40;;;;;;;12.63;3.45;;;;;;;;;;5054011;28;20452;-79
2023/07/15 19:37:06;;;;;;;17.58;4.50;;;;;;;;;;5053359;28;20062;-79
2023/07/15 19:39:32;;;;;;;8.52;3.78;;;;;;;;;;5069010;28;20104;-79
2023/07/15 19:41:59;;;;;;;13.20;3.92;;;;;;;;;;5053852;28;20032;-78
2023/07/15 19:44:25;;;;;;;11.02;3.53;;;;;;;;;;5053570;28;20079;-78
2023/07/15 19:46:51;;;;;;;14.38;3.40;;;;;;;;;;5053340;28;20078;-79
2023/07/15 19:49:17;;;;;;;10.60;3.97;;;;;;;;;;5052694;28;20024;-79
2023/07/15 19:51:43;;;;;;;8.93;2.83;;;;;;;;;;5053763;28;20028;-79
2023/07/15 19:54:09;;;;;;;12.52;4.00;;;;;;;;;;5053823;28;20025;-78
2023/07/15 19:56:35;;;;;;;5.88;3.03;;;;;;;;;;5053600;28;20032;-79
2023/07/15 19:59:01;;;;;;;9.13;3.28;;;;;;;;;;5053581;28;20017;-78
2023/07/15 20:01:27;;;;;;;6.75;3.17;;;;;;;;;;5053974;28;20477;-79
2023/07/15 20:03:53;;;;;;;7.55;2.92;;;;;;;;;;5054023;28;20017;-79
2023/07/15 20:06:20;;;;;;;7.43;3.25;;;;;;;;;;5054103;28;20103;-79
2023/07/15 20:08:46;;;;;;;5.82;2.63;;;;;;;;;;5054108;28;20569;-79
2023/07/15 20:11:12;;;;;;;7.70;3.28;;;;;;;;;;5052120;28;20025;-79
2023/07/15 20:13:39;;;;;;;7.65;3.00;;;;;;;;;;5052002;28;20360;-79
2023/07/15 20:16:05;;;;;;;5.28;2.88;;;;;;;;;;5051331;28;20094;-80
2023/07/15 20:18:31;;;;;;;11.40;3.50;;;;;;;;;;5053277;28;20459;-78
2023/07/15 20:20:57;;;;;;;7.40;3.45;;;;;;;;;;5051373;28;20459;-77
2023/07/15 20:23:23;;;;;;;12.45;4.30;;;;;;;;;;5052351;28;20029;-77
2023/07/15 20:25:53;;;;;;;14.85;5.18;;;;;;;;;;5053686;28;20104;-79
2023/07/15 20:28:19;;;;;;;14.60;5.07;;;;;;;;;;5051744;28;20063;-79
2023/07/15 20:30:45;;;;;;;12.65;4.32;;;;;;;;;;5052602;28;20029;-79
2023/07/15 20:33:11;;;;;;;13.40;5.10;;;;;;;;;;5052677;28;20020;-79
2023/07/15 20:35:37;;;;;;;10.82;4.90;;;;;;;;;;5053258;28;20021;-79
2023/07/15 20:38:03;;;;;;;17.98;5.38;;;;;;;;;;5051085;28;20383;-79
2023/07/15 20:40:29;;;;;;;12.77;5.72;;;;;;;;;;5051832;28;20364;-79
2023/07/15 20:42:56;;;;;;;13.27;6.22;;;;;;;;;;5053719;28;20023;-79
2023/07/15 20:45:22;;;;;;;19.48;6.60;;;;;;;;;;5053492;28;20523;-79
2023/07/15 20:47:48;;;;;;;19.83;7.07;;;;;;;;;;5052098;28;20076;-79
2023/07/15 20:50:16;;;;;;;13.52;7.03;;;;;;;;;;5053640;28;20017;-79
2023/07/15 20:52:43;;;;;;;19.48;6.18;;;;;;;;;;5052277;28;20116;-79
2023/07/15 20:55:09;;;;;;;10.00;5.93;;;;;;;;;;5052229;28;20048;-79
2023/07/15 20:57:35;;;;;;;11.38;5.18;;;;;;;;;;5053451;28;20363;-78
2023/07/15 21:00:01;;;;;;;12.82;5.07;;;;;;;;;;5052036;28;20490;-78
2023/07/15 21:02:27;;;;;;;11.88;5.72;;;;;;;;;;5053628;28;20456;-77
2023/07/15 21:04:54;;;;;;;10.88;4.85;;;;;;;;;;5052228;28;20025;-78
2023/07/15 21:07:20;;;;;;;10.35;4.45;;;;;;;;;;5052963;28;20366;-78
2023/07/15 21:09:46;;;;;;;7.68;4.13;;;;;;;;;;5052048;28;20474;-78
2023/07/15 21:12:12;;;;;;;10.48;4.78;;;;;;;;;;5050332;28;20522;-78
2023/07/15 21:14:38;;;;;;;7.75;4.28;;;;;;;;;;5052730;28;20021;-78
2023/07/15 21:17:04;;;;;;;11.13;5.05;;;;;;;;;;5052470;28;20021;-78
2023/07/15 21:19:30;;;;;;;14.20;4.70;;;;;;;;;;5067732;28;20021;-78
2023/07/15 21:21:57;;;;;;;12.07;4.38;;;;;;;;;;5052595;28;20078;-78
2023/07/15 21:24:23;;;;;;;9.60;4.20;;;;;;;;;;5050944;28;20021;-78
2023/07/15 21:26:54;;;;;;;9.27;3.88;;;;;;;;;;5052310;28;20096;-78
2023/07/15 21:29:21;;;;;;;12.27;3.92;;;;;;;;;;5052191;28;20036;-78
2023/07/15 21:31:47;;;;;;;18.33;4.88;;;;;;;;;;5052506;28;20017;-78
2023/07/15 21:34:13;;;;;;;9.52;4.65;;;;;;;;;;5052196;28;20017;-78
2023/07/15 21:36:39;;;;;;;9.65;5.20;;;;;;;;;;5054954;28;20074;-77
2023/07/15 21:39:05;;;;;;;10.25;4.45;;;;;;;;;;5054894;28;20451;-78
2023/07/15 21:41:31;;;;;;;10.05;4.50;;;;;;;;;;5054721;28;20467;-78
2023/07/15 21:43:57;;;;;;;11.88;4.63;;;;;;;;;;5055952;28;20539;-78
2023/07/15 21:46:25;;;;;;;16.23;5.05;;;;;;;;;;5055977;28;20021;-78
2023/07/15 21:48:51;;;;;;;7.07;4.30;;;;;;;;;;5055970;28;20041;-78
2023/07/15 21:51:17;;;;;;;13.90;4.72;;;;;;;;;;5054518;28;20422;-78
2023/07/15 21:53:43;;;;;;;10.10;4.15;;;;;;;;;;5056165;28;20409;-77
2023/07/15 21:56:10;;;;;;;12.07;4.60;;;;;;;;;;5054249;28;20404;-78
2023/07/15 21:58:36;;;;;;;9.30;4.13;;;;;;;;;;5055713;28;20086;-78
2023/07/15 22:01:02;;;;;;;8.20;4.47;;;;;;;;;;5055339;28;20374;-78
2023/07/15 22:03:28;;;;;;;10.73;4.47;;;;;;;;;;5037969;28;20413;-78
2023/07/15 22:05:55;;;;;;;13.30;4.95;;;;;;;;;;5055709;28;20025;-78
2023/07/15 22:08:22;;;;;;;17.30;6.20;;;;;;;;;;5055233;28;20029;-78
2023/07/15 22:10:48;;;;;;;18.45;4.90;;;;;;;;;;5054363;28;20080;-78
2023/07/15 22:13:14;;;;;;;10.25;5.85;;;;;;;;;;5055590;28;20107;-78